createdAt,value
2023-04-14T00:00:20.616Z,13.17
2023-04-14T00:02:49.121Z,13.15
2023-04-14T00:05:17.643Z,13.13
2023-04-14T00:07:46.962Z,13.09
2023-04-14T00:10:15.554Z,13.04
2023-04-14T00:12:43.379Z,13.00
2023-04-14T00:15:12.360Z,12.99
2023-04-14T00:17:40.735Z,12.97
2023-04-14T00:20:09.840Z,13.04
2023-04-14T00:22:37.793Z,13.02
2023-04-14T00:25:07.767Z,13.06
2023-04-14T00:27:35.820Z,13.09
2023-04-14T00:30:04.076Z,13.11
2023-04-14T00:32:34.296Z,13.10
2023-04-14T00:35:03.633Z,13.14
2023-04-14T00:37:31.686Z,13.08
2023-04-14T00:40:00.649Z,13.15
2023-04-14T00:42:29.959Z,13.18
2023-04-14T00:44:58.065Z,13.22
2023-04-14T00:47:27.819Z,13.25
2023-04-14T00:49:56.277Z,13.23
2023-04-14T00:52:26.605Z,13.21
2023-04-14T00:54:56.021Z,13.19
2023-04-14T00:57:24.194Z,13.26
2023-04-14T00:59:54.427Z,13.28
2023-04-14T01:02:23.055Z,13.27
2023-04-14T01:04:54.758Z,13.28
2023-04-14T01:07:24.717Z,13.27
2023-04-14T01:09:54.099Z,13.27
2023-04-14T01:12:32.683Z,13.25
2023-04-14T01:15:12.495Z,13.21
2023-04-14T01:17:46.946Z,13.20
2023-04-14T01:20:24.239Z,13.17
2023-04-14T01:22:59.023Z,13.11
2023-04-14T01:25:55.000Z,13.04
2023-04-14T01:28:41.057Z,13.07
2023-04-14T01:31:30.724Z,12.99
2023-04-14T01:34:04.822Z,13.09
2023-04-14T01:36:39.142Z,13.08
2023-04-14T01:39:10.010Z,13.10
2023-04-14T01:41:43.211Z,13.13
2023-04-14T01:44:13.738Z,13.14
2023-04-14T01:46:44.982Z,13.15
2023-04-14T01:49:13.591Z,13.13
2023-04-14T01:51:44.280Z,13.15
2023-04-14T01:54:14.245Z,13.15
2023-04-14T01:56:44.743Z,13.12
2023-04-14T01:59:13.336Z,13.11
2023-04-14T02:01:44.000Z,13.12
2023-04-14T02:04:13.610Z,13.08
2023-04-14T02:06:42.017Z,13.06
2023-04-14T02:09:13.151Z,13.06
2023-04-14T02:11:43.297Z,13.06
2023-04-14T02:14:13.134Z,13.09
2023-04-14T02:16:41.790Z,13.09
2023-04-14T02:19:11.379Z,13.08
2023-04-14T02:21:41.366Z,13.06
2023-04-14T02:24:10.512Z,13.09
2023-04-14T02:26:43.955Z,13.08
2023-04-14T02:29:15.433Z,13.05
2023-04-14T02:31:47.243Z,13.02
2023-04-14T02:34:23.819Z,13.06
2023-04-14T02:36:56.419Z,13.07
2023-04-14T02:39:32.055Z,13.07
2023-04-14T02:42:05.965Z,13.05
2023-04-14T02:44:38.334Z,13.05
2023-04-14T02:47:10.484Z,13.06
2023-04-14T02:49:44.325Z,13.07
2023-04-14T02:52:15.410Z,13.03
2023-04-14T02:54:44.465Z,13.00
2023-04-14T02:57:13.181Z,12.99
2023-04-14T02:59:43.938Z,13.00
2023-04-14T03:02:13.422Z,12.99
2023-04-14T03:04:43.364Z,12.90
2023-04-14T03:07:16.225Z,12.93
2023-04-14T03:09:45.703Z,12.94
2023-04-14T03:12:16.639Z,12.95
2023-04-14T03:14:45.934Z,12.95
2023-04-14T03:17:17.513Z,12.93
2023-04-14T03:19:48.711Z,12.93
2023-04-14T03:22:17.937Z,12.89
2023-04-14T03:24:47.099Z,12.89
2023-04-14T03:27:21.980Z,12.90
2023-04-14T03:29:55.042Z,12.96
2023-04-14T03:32:26.122Z,12.94
2023-04-14T03:35:01.356Z,12.95
2023-04-14T03:37:32.682Z,12.95
2023-04-14T03:40:05.165Z,12.94
2023-04-14T03:42:35.770Z,12.95
2023-04-14T03:45:05.468Z,12.93
2023-04-14T03:47:34.673Z,12.97
2023-04-14T03:50:09.011Z,12.95
2023-04-14T03:52:41.264Z,12.91
2023-04-14T03:55:13.617Z,12.91
2023-04-14T03:57:44.507Z,12.89
2023-04-14T04:00:15.924Z,12.91
2023-04-14T04:02:49.003Z,12.93
2023-04-14T04:05:19.001Z,12.89
2023-04-14T04:07:47.981Z,12.95
2023-04-14T04:10:17.600Z,12.98
2023-04-14T04:12:48.525Z,13.02
2023-04-14T04:15:17.473Z,13.05
2023-04-14T04:17:48.326Z,13.00
2023-04-14T04:20:20.207Z,12.99
2023-04-14T04:22:51.763Z,13.03
2023-04-14T04:25:21.044Z,13.00
2023-04-14T04:27:51.089Z,12.98
2023-04-14T04:30:20.515Z,12.95
2023-04-14T04:32:49.096Z,13.00
2023-04-14T04:35:19.438Z,13.02
2023-04-14T04:37:49.059Z,13.03
2023-04-14T04:40:17.255Z,13.04
2023-04-14T04:42:45.741Z,13.05
2023-04-14T04:45:14.387Z,13.08
2023-04-14T04:47:42.495Z,13.09
2023-04-14T04:50:10.918Z,13.09
2023-04-14T04:52:40.520Z,13.12
2023-04-14T04:55:08.706Z,13.13
2023-04-14T04:57:36.694Z,13.15
2023-04-14T05:00:05.767Z,13.18
2023-04-14T05:02:33.702Z,13.20
2023-04-14T05:05:01.823Z,13.23
2023-04-14T05:07:30.049Z,13.28
2023-04-14T05:09:59.278Z,13.30
2023-04-14T05:12:27.256Z,13.31
2023-04-14T05:14:55.480Z,13.32
2023-04-14T05:17:23.890Z,13.33
2023-04-14T05:19:51.808Z,13.25
2023-04-14T05:22:20.014Z,13.22
2023-04-14T05:24:50.494Z,13.35
2023-04-14T05:27:21.859Z,13.28
2023-04-14T05:29:50.010Z,13.38
2023-04-14T05:32:18.068Z,13.39
2023-04-14T05:34:46.161Z,13.46
2023-04-14T05:37:14.410Z,13.50
2023-04-14T05:39:42.404Z,13.59
2023-04-14T05:42:10.512Z,13.51
2023-04-14T05:44:40.216Z,13.50
2023-04-14T05:47:08.119Z,13.55
2023-04-14T05:49:36.100Z,13.60
2023-04-14T05:52:04.511Z,13.62
2023-04-14T05:54:35.522Z,13.68
2023-04-14T05:57:03.506Z,13.64
2023-04-14T05:59:31.930Z,13.74
2023-04-14T06:02:04.815Z,13.81
2023-04-14T06:04:33.436Z,13.88
2023-04-14T06:07:02.870Z,13.87
2023-04-14T06:09:31.617Z,13.91
2023-04-14T06:11:59.987Z,13.94
2023-04-14T06:14:27.888Z,13.89
2023-04-14T06:16:55.910Z,13.99
2023-04-14T06:19:25.545Z,14.10
2023-04-14T06:21:53.760Z,14.06
2023-04-14T06:24:21.744Z,14.23
2023-04-14T06:26:49.931Z,14.29
2023-04-14T06:29:17.843Z,14.41
2023-04-14T06:31:45.872Z,14.47
2023-04-14T06:34:14.228Z,14.53
2023-04-14T06:36:43.536Z,14.53
2023-04-14T06:39:12.317Z,14.39
2023-04-14T06:41:40.725Z,14.36
2023-04-14T06:44:08.790Z,14.33
2023-04-14T06:46:38.017Z,14.26
2023-04-14T06:49:07.277Z,14.24
2023-04-14T06:51:35.507Z,14.23
2023-04-14T06:54:05.320Z,14.19
2023-04-14T06:56:33.914Z,14.20
2023-04-14T06:59:02.138Z,14.10
2023-04-14T07:01:48.805Z,14.13
2023-04-14T07:04:36.586Z,14.20
2023-04-14T07:07:04.626Z,14.12
2023-04-14T07:09:35.554Z,13.92
2023-04-14T07:12:03.644Z,13.84
2023-04-14T07:14:32.925Z,14.00
2023-04-14T07:17:01.161Z,13.80
2023-04-14T07:19:29.136Z,13.92
2023-04-14T07:21:57.123Z,13.87
2023-04-14T07:24:25.491Z,13.92
2023-04-14T07:26:54.824Z,14.04
2023-04-14T07:29:22.776Z,14.16
2023-04-14T07:31:51.165Z,14.20
2023-04-14T07:34:20.320Z,14.26
2023-04-14T07:36:48.891Z,14.33
2023-04-14T07:39:17.213Z,14.44
2023-04-14T07:41:45.140Z,14.55
2023-04-14T07:44:14.804Z,14.71
2023-04-14T07:46:43.078Z,14.87
2023-04-14T07:49:11.275Z,14.99
2023-04-14T07:51:39.255Z,15.16
2023-04-14T07:54:07.582Z,15.32
2023-04-14T07:56:35.478Z,15.19
2023-04-14T07:59:03.608Z,15.24
2023-04-14T08:01:33.450Z,15.40
2023-04-14T08:04:01.965Z,15.56
2023-04-14T08:06:30.124Z,15.69
2023-04-14T08:08:58.299Z,15.77
2023-04-14T08:11:26.689Z,15.81
2023-04-14T08:13:54.662Z,15.91
2023-04-14T08:16:22.952Z,15.93
2023-04-14T08:18:53.564Z,15.97
2023-04-14T08:21:23.159Z,16.02
2023-04-14T08:23:52.454Z,16.03
2023-04-14T08:26:21.294Z,16.16
2023-04-14T08:28:49.291Z,16.19
2023-04-14T08:31:17.624Z,16.26
2023-04-14T08:33:45.865Z,16.30
2023-04-14T08:36:15.532Z,16.33
2023-04-14T08:38:43.825Z,16.44
2023-04-14T08:41:14.361Z,16.58
2023-04-14T08:43:42.398Z,16.59
2023-04-14T08:46:12.510Z,16.70
2023-04-14T08:48:41.897Z,16.78
2023-04-14T08:51:19.771Z,16.88
2023-04-14T08:53:49.802Z,17.00
2023-04-14T08:56:19.721Z,17.08
2023-04-14T08:58:49.162Z,17.24
2023-04-14T09:01:19.219Z,17.38
2023-04-14T09:03:48.901Z,17.32
2023-04-14T09:06:18.914Z,17.33
2023-04-14T09:08:47.333Z,17.46
2023-04-14T09:11:17.353Z,17.44
2023-04-14T09:13:45.739Z,17.34
2023-04-14T09:16:14.150Z,17.42
2023-04-14T09:18:42.318Z,17.71
2023-04-14T09:21:49.986Z,17.74
2023-04-14T09:24:03.264Z,17.75
2023-04-14T09:26:31.336Z,18.12
2023-04-14T09:28:59.941Z,18.16
2023-04-14T09:31:28.621Z,18.37
2023-04-14T09:33:57.250Z,18.53
2023-04-14T09:36:27.854Z,18.48
2023-04-14T09:38:56.572Z,18.43
2023-04-14T09:41:27.620Z,18.46
2023-04-14T09:43:56.149Z,18.45
2023-04-14T09:46:24.109Z,17.93
2023-04-14T09:48:53.884Z,17.76
2023-04-14T09:51:23.411Z,17.43
2023-04-14T09:53:54.102Z,17.44
2023-04-14T09:56:27.083Z,17.34
2023-04-14T09:59:00.896Z,17.38
2023-04-14T10:01:32.152Z,17.29
2023-04-14T10:04:03.292Z,17.19
2023-04-14T10:06:32.290Z,17.06
2023-04-14T10:09:01.116Z,17.04
2023-04-14T10:11:32.305Z,17.13
2023-04-14T10:14:03.894Z,17.14
2023-04-14T10:16:32.783Z,17.17
2023-04-14T10:19:01.829Z,17.12
2023-04-14T10:21:30.426Z,16.98
2023-04-14T10:23:58.619Z,17.23
2023-04-14T10:26:27.723Z,17.43
2023-04-14T10:28:57.123Z,17.60
2023-04-14T10:31:31.925Z,17.71
2023-04-14T10:34:07.574Z,17.89
2023-04-14T10:36:36.910Z,18.06
2023-04-14T10:39:06.871Z,17.92
2023-04-14T10:41:46.857Z,17.85
2023-04-14T10:44:25.593Z,18.21
2023-04-14T10:46:56.615Z,18.04
2023-04-14T10:49:33.053Z,18.09
2023-04-14T10:52:03.384Z,18.12
2023-04-14T10:54:49.823Z,18.46
2023-04-14T10:57:19.307Z,18.74
2023-04-14T10:59:48.663Z,18.93
2023-04-14T11:02:26.357Z,18.94
2023-04-14T11:05:04.089Z,19.19
2023-04-14T11:07:38.998Z,19.22
2023-04-14T11:10:27.947Z,19.22
2023-04-14T11:12:57.420Z,19.33
2023-04-14T11:15:25.897Z,19.29
2023-04-14T11:17:55.339Z,19.34
2023-04-14T11:20:25.092Z,19.48
2023-04-14T11:22:54.831Z,19.69
2023-04-14T11:25:24.804Z,19.82
2023-04-14T11:27:54.309Z,20.00
2023-04-14T11:30:22.868Z,20.02
2023-04-14T11:32:53.415Z,19.85
2023-04-14T11:35:26.140Z,19.78
2023-04-14T11:37:58.145Z,19.80
2023-04-14T11:40:28.347Z,19.68
2023-04-14T11:42:57.953Z,19.54
2023-04-14T11:45:28.977Z,18.86
2023-04-14T11:47:58.843Z,18.61
2023-04-14T11:50:33.330Z,18.88
2023-04-14T11:53:03.051Z,18.48
2023-04-14T11:55:31.549Z,18.62
2023-04-14T11:58:00.364Z,18.48
2023-04-14T12:00:28.981Z,18.46
2023-04-14T12:02:58.622Z,18.57
2023-04-14T12:05:31.244Z,18.56
2023-04-14T12:08:00.920Z,18.38
2023-04-14T12:10:29.258Z,18.47
2023-04-14T12:13:02.406Z,18.52
2023-04-14T12:15:32.298Z,18.22
2023-04-14T12:18:01.169Z,18.39
2023-04-14T12:20:31.439Z,18.53
2023-04-14T12:23:03.721Z,18.78
2023-04-14T12:25:35.254Z,18.87
2023-04-14T12:28:06.585Z,19.05
2023-04-14T12:30:35.868Z,18.86
2023-04-14T12:33:10.627Z,18.21
2023-04-14T12:35:41.591Z,17.33
2023-04-14T12:38:12.629Z,16.98
2023-04-14T12:40:42.692Z,16.78
2023-04-14T12:43:11.505Z,16.63
2023-04-14T12:45:43.765Z,16.98
2023-04-14T12:48:13.499Z,16.83
2023-04-14T12:50:42.918Z,17.15
2023-04-14T12:53:24.631Z,17.51
2023-04-14T12:56:05.563Z,17.74
2023-04-14T12:58:34.208Z,17.90
2023-04-14T13:01:02.500Z,17.84
2023-04-14T13:03:41.803Z,17.80
2023-04-14T13:06:16.370Z,17.80
2023-04-14T13:08:46.236Z,17.99
2023-04-14T13:11:14.736Z,17.95
2023-04-14T13:13:44.334Z,18.07
2023-04-14T13:16:16.220Z,17.79
2023-04-14T13:18:46.539Z,18.26
2023-04-14T13:21:17.191Z,18.39
2023-04-14T13:23:45.662Z,18.28
2023-04-14T13:26:13.838Z,18.29
2023-04-14T13:28:41.861Z,18.06
2023-04-14T13:31:11.658Z,18.19
2023-04-14T13:33:39.902Z,18.10
2023-04-14T13:36:08.538Z,17.96
2023-04-14T13:38:38.152Z,17.76
2023-04-14T13:41:06.333Z,17.72
2023-04-14T13:43:34.903Z,17.47
2023-04-14T13:46:03.236Z,17.50
2023-04-14T13:48:32.272Z,17.34
2023-04-14T13:51:00.208Z,17.52
2023-04-14T13:53:28.468Z,17.21
2023-04-14T13:55:58.206Z,17.48
2023-04-14T13:58:26.901Z,17.97
2023-04-14T14:00:56.254Z,17.60
2023-04-14T14:03:25.215Z,17.61
2023-04-14T14:05:53.536Z,17.45
2023-04-14T14:08:21.523Z,17.47
2023-04-14T14:10:49.765Z,17.63
2023-04-14T14:13:20.527Z,17.75
2023-04-14T14:15:48.985Z,17.86
2023-04-14T14:18:17.652Z,17.96
2023-04-14T14:20:45.601Z,18.14
2023-04-14T14:23:13.627Z,18.52
2023-04-14T14:25:41.927Z,18.16
2023-04-14T14:28:09.942Z,18.32
2023-04-14T14:30:39.526Z,18.33
2023-04-14T14:33:07.763Z,18.13
2023-04-14T14:35:35.857Z,18.26
2023-04-14T14:38:03.825Z,18.16
2023-04-14T14:40:32.220Z,18.16
2023-04-14T14:43:01.046Z,18.19
2023-04-14T14:45:31.376Z,18.03
2023-04-14T14:48:03.103Z,18.00
2023-04-14T14:50:31.243Z,17.88
2023-04-14T14:52:59.164Z,18.17
2023-04-14T14:55:27.534Z,18.13
2023-04-14T14:57:55.705Z,17.95
2023-04-14T15:00:23.750Z,18.63
2023-04-14T15:02:53.144Z,18.39
2023-04-14T15:05:22.771Z,18.22
2023-04-14T15:07:50.978Z,18.02
2023-04-14T15:10:19.460Z,17.79
2023-04-14T15:12:47.593Z,17.76
2023-04-14T15:15:15.823Z,18.17
2023-04-14T15:17:44.250Z,18.23
2023-04-14T15:20:13.277Z,17.92
2023-04-14T15:22:42.698Z,17.59
2023-04-14T15:25:11.677Z,17.87
2023-04-14T15:27:39.634Z,17.41
2023-04-14T15:30:08.870Z,17.37
2023-04-14T15:32:37.297Z,17.80
2023-04-14T15:35:06.060Z,17.84
2023-04-14T15:37:35.256Z,17.57
2023-04-14T15:40:05.319Z,17.45
2023-04-14T15:42:33.302Z,17.64
2023-04-14T15:45:01.282Z,17.74
2023-04-14T15:47:29.536Z,17.65
2023-04-14T15:50:09.339Z,17.52
2023-04-14T15:52:39.428Z,17.67
2023-04-14T15:55:10.697Z,17.38
2023-04-14T15:57:38.981Z,17.09
2023-04-14T16:00:08.315Z,17.16
2023-04-14T16:02:42.029Z,17.18
2023-04-14T16:05:10.915Z,17.08
2023-04-14T16:07:40.054Z,16.83
2023-04-14T16:10:10.070Z,16.54
2023-04-14T16:12:38.667Z,16.21
2023-04-14T16:15:08.355Z,16.29
2023-04-14T16:17:36.534Z,15.99
2023-04-14T16:20:05.546Z,16.00
2023-04-14T16:22:34.158Z,16.03
2023-04-14T16:25:04.372Z,15.95
2023-04-14T16:27:34.218Z,15.86
2023-04-14T16:30:02.702Z,15.51
2023-04-14T16:32:31.189Z,15.56
2023-04-14T16:34:59.580Z,15.67
2023-04-14T16:37:27.856Z,15.67
2023-04-14T16:39:56.529Z,15.51
2023-04-14T16:42:26.346Z,15.59
2023-04-14T16:44:56.364Z,15.63
2023-04-14T16:47:25.013Z,15.83
2023-04-14T16:49:53.027Z,15.85
2023-04-14T16:52:21.197Z,15.90
2023-04-14T16:54:50.432Z,15.83
2023-04-14T16:57:18.505Z,15.83
2023-04-14T16:59:48.111Z,15.87
2023-04-14T17:02:17.779Z,15.77
2023-04-14T17:04:46.020Z,15.43
2023-04-14T17:07:14.182Z,15.41
2023-04-14T17:09:42.792Z,15.51
2023-04-14T17:12:10.781Z,15.34
2023-04-14T17:14:38.726Z,15.15
2023-04-14T17:17:07.217Z,15.24
2023-04-14T17:19:36.663Z,15.35
2023-04-14T17:22:04.654Z,15.12
2023-04-14T17:24:33.736Z,15.15
2023-04-14T17:27:02.210Z,15.34
2023-04-14T17:29:31.144Z,15.40
2023-04-14T17:32:01.116Z,15.48
2023-04-14T17:34:29.596Z,15.35
2023-04-14T17:37:00.110Z,15.31
2023-04-14T17:39:28.366Z,15.31
2023-04-14T17:41:57.947Z,15.31
2023-04-14T17:44:32.546Z,15.26
2023-04-14T17:47:03.032Z,15.12
2023-04-14T17:49:31.562Z,14.99
2023-04-14T17:52:01.276Z,14.85
2023-04-14T17:54:30.527Z,14.85
2023-04-14T17:56:58.505Z,14.88
2023-04-14T17:59:27.142Z,14.76
2023-04-14T18:01:55.694Z,14.87
2023-04-14T18:04:24.081Z,14.98
2023-04-14T18:06:52.137Z,14.87
2023-04-14T18:09:21.549Z,14.89
2023-04-14T18:11:49.812Z,14.88
2023-04-14T18:14:17.723Z,14.87
2023-04-14T18:16:45.760Z,14.87
2023-04-14T18:19:14.629Z,14.86
2023-04-14T18:21:44.865Z,14.84
2023-04-14T18:26:46.012Z,14.65
2023-04-14T18:29:14.308Z,14.57
2023-04-14T18:31:42.581Z,14.45
2023-04-14T18:34:11.755Z,14.44
2023-04-14T18:36:40.495Z,14.42
2023-04-14T18:39:08.523Z,14.41
2023-04-14T18:41:36.573Z,14.47
2023-04-14T18:44:07.545Z,14.24
2023-04-14T18:46:37.776Z,14.34
2023-04-14T18:49:06.141Z,14.30
2023-04-14T18:51:34.111Z,14.30
2023-04-14T18:54:02.296Z,14.37
2023-04-14T18:56:30.765Z,14.24
2023-04-14T18:58:59.834Z,14.16
2023-04-14T19:01:29.578Z,14.23
2023-04-14T19:03:58.036Z,14.26
2023-04-14T19:06:26.346Z,14.25
2023-04-14T19:08:54.481Z,14.34
2023-04-14T19:11:22.711Z,14.35
2023-04-14T19:13:50.680Z,14.39
2023-04-14T19:16:18.790Z,14.32
2023-04-14T19:18:48.303Z,14.38
2023-04-14T19:21:16.340Z,14.43
2023-04-14T19:23:46.909Z,14.45
2023-04-14T19:26:15.702Z,14.42
2023-04-14T19:28:45.736Z,14.45
2023-04-14T19:31:13.677Z,14.51
2023-04-14T19:33:41.987Z,14.51
2023-04-14T19:36:15.427Z,14.56
2023-04-14T19:38:44.178Z,14.54
2023-04-14T19:41:12.403Z,14.57
2023-04-14T19:43:40.382Z,14.53
2023-04-14T19:46:10.445Z,14.47
2023-04-14T19:48:39.046Z,14.48
2023-04-14T19:51:07.005Z,14.46
2023-04-14T19:53:36.607Z,14.37
2023-04-14T19:56:05.643Z,14.34
2023-04-14T19:58:34.007Z,14.37
2023-04-14T20:01:02.207Z,14.37
2023-04-14T20:03:33.086Z,14.33
2023-04-14T20:06:03.094Z,14.32
2023-04-14T20:08:32.314Z,14.30
2023-04-14T20:11:01.942Z,14.20
2023-04-14T20:13:34.781Z,14.26
2023-04-14T20:16:02.963Z,14.23
2023-04-14T20:18:31.065Z,14.23
2023-04-14T20:20:59.691Z,14.19
2023-04-14T20:23:28.084Z,14.24
2023-04-14T20:25:56.763Z,14.19
2023-04-14T20:28:26.662Z,14.12
2023-04-14T20:30:55.878Z,14.14
2023-04-14T20:33:24.567Z,14.13
2023-04-14T20:35:54.065Z,14.13
2023-04-14T20:38:24.651Z,14.15
2023-04-14T20:40:54.569Z,14.18
2023-04-14T20:43:23.254Z,14.15
2023-04-14T20:45:53.207Z,14.18
2023-04-14T20:48:21.484Z,14.17
2023-04-14T20:50:50.581Z,14.11
2023-04-14T20:53:21.998Z,14.12
2023-04-14T20:55:51.036Z,14.05
2023-04-14T20:58:19.221Z,14.10
2023-04-14T21:00:47.176Z,14.13
2023-04-14T21:03:17.188Z,14.05
2023-04-14T21:05:46.274Z,14.03
2023-04-14T21:08:14.383Z,14.01
2023-04-14T21:11:14.563Z,13.99
2023-04-14T21:15:26.839Z,14.02
2023-04-14T21:16:19.149Z,14.03
2023-04-14T21:18:48.479Z,14.03
2023-04-14T21:21:16.766Z,14.07
2023-04-14T21:23:45.042Z,14.11
2023-04-14T21:26:13.321Z,14.12
2023-04-14T21:28:41.787Z,14.08
2023-04-14T21:31:11.177Z,14.01
2023-04-14T21:33:41.598Z,13.99
2023-04-14T21:36:11.665Z,14.01
2023-04-14T21:38:40.150Z,13.88
2023-04-14T21:41:09.418Z,13.88
2023-04-14T21:43:39.530Z,13.93
2023-04-14T21:46:08.048Z,13.82
2023-04-14T21:48:36.087Z,13.92
2023-04-14T21:51:05.000Z,13.95
2023-04-14T21:53:34.701Z,13.99
2023-04-14T21:56:10.137Z,14.02
2023-04-14T21:58:40.308Z,14.00
2023-04-14T22:01:09.585Z,14.04
2023-04-14T22:03:40.425Z,13.99
2023-04-14T22:06:09.963Z,14.00
2023-04-14T22:08:41.223Z,14.00
2023-04-14T22:11:09.287Z,14.04
2023-04-14T22:13:37.499Z,13.98
2023-04-14T22:16:06.430Z,14.01
2023-04-14T22:18:35.811Z,14.01
2023-04-14T22:21:04.828Z,13.97
2023-04-14T22:23:33.511Z,13.86
2023-04-14T22:26:03.583Z,13.87
2023-04-14T22:28:31.709Z,13.87
2023-04-14T22:31:00.010Z,13.91
2023-04-14T22:33:28.005Z,13.81
2023-04-14T22:35:56.276Z,13.85
2023-04-14T22:38:24.581Z,13.68
2023-04-14T22:40:52.939Z,13.77
2023-04-14T22:43:22.312Z,13.85
2023-04-14T22:45:51.023Z,13.85
2023-04-14T22:48:19.088Z,13.87
2023-04-14T22:50:47.046Z,13.76
2023-04-14T22:53:15.704Z,13.82
2023-04-14T22:55:44.119Z,13.85
2023-04-14T22:58:16.554Z,13.72
2023-04-14T23:00:46.540Z,13.88
2023-04-14T23:03:15.531Z,13.83
2023-04-14T23:05:44.671Z,13.85
2023-04-14T23:08:12.930Z,13.80
2023-04-14T23:10:40.964Z,13.73
2023-04-14T23:13:09.404Z,13.74
2023-04-14T23:15:37.608Z,13.76
2023-04-14T23:18:07.039Z,13.81
2023-04-14T23:20:35.042Z,13.70
2023-04-14T23:23:10.955Z,13.62
2023-04-14T23:25:39.344Z,13.57
2023-04-14T23:28:08.323Z,13.60
2023-04-14T23:30:36.932Z,13.63
2023-04-14T23:33:05.173Z,13.65
2023-04-14T23:35:35.888Z,13.69
2023-04-14T23:38:04.073Z,13.63
2023-04-14T23:40:33.400Z,13.62
2023-04-14T23:43:05.064Z,13.55
2023-04-14T23:45:37.105Z,13.45
2023-04-14T23:48:05.973Z,13.42
2023-04-14T23:50:59.189Z,13.43
2023-04-14T23:53:24.037Z,13.41
2023-04-14T23:55:52.677Z,13.42
2023-04-14T23:58:26.558Z,13.40
